sensor_id;sensor_type;location;lat;lon;timestamp;pressure;altitude;pressure_sealevel;temperature;humidity
70571;BME280;58135;50.948;-1.458;2022-11-03T00:00:35;100324.82;;;15.67;21.28
70571;BME280;58135;50.948;-1.458;2022-11-03T00:03:00;100321.73;;;13.98;21.29
70571;BME280;58135;50.948;-1.458;2022-11-03T00:05:26;100320.12;;;14.93;21.10
70571;BME280;58135;50.948;-1.458;2022-11-03T00:07:51;100319.50;;;13.14;21.15
70571;BME280;58135;50.948;-1.458;2022-11-03T00:10:17;100313.89;;;14.15;21.16
70571;BME280;58135;50.948;-1.458;2022-11-03T00:12:42;100307.25;;;12.40;21.11
70571;BME280;58135;50.948;-1.458;2022-11-03T00:15:08;100305.06;;;13.37;21.27
70571;BME280;58135;50.948;-1.458;2022-11-03T00:17:33;100292.48;;;12.48;21.19
70571;BME280;58135;50.948;-1.458;2022-11-03T00:19:59;100288.01;;;13.41;20.98
70571;BME280;58135;50.948;-1.458;2022-11-03T00:22:24;100288.68;;;13.47;21.04
70571;BME280;58135;50.948;-1.458;2022-11-03T00:24:50;100287.01;;;12.72;21.08
70571;BME280;58135;50.948;-1.458;2022-11-03T00:27:15;100278.52;;;14.62;20.93
70571;BME280;58135;50.948;-1.458;2022-11-03T00:29:41;100277.89;;;14.68;20.92
70571;BME280;58135;50.948;-1.458;2022-11-03T00:32:06;100274.99;;;14.65;20.97
70571;BME280;58135;50.948;-1.458;2022-11-03T00:34:32;100268.76;;;15.50;21.25
70571;BME280;58135;50.948;-1.458;2022-11-03T00:36:57;100266.52;;;14.74;20.87
70571;BME280;58135;50.948;-1.458;2022-11-03T00:39:23;100265.34;;;14.89;20.90
70571;BME280;58135;50.948;-1.458;2022-11-03T00:41:48;100262.84;;;16.05;20.54
70571;BME280;58135;50.948;-1.458;2022-11-03T00:44:13;100262.95;;;15.31;20.43
70571;BME280;58135;50.948;-1.458;2022-11-03T00:46:39;100270.83;;;15.21;20.59
70571;BME280;58135;50.948;-1.458;2022-11-03T00:49:04;100275.80;;;14.22;20.71
70571;BME280;58135;50.948;-1.458;2022-11-03T00:51:30;100269.77;;;15.14;20.58
70571;BME280;58135;50.948;-1.458;2022-11-03T00:53:57;100241.62;;;15.09;20.57
70571;BME280;58135;50.948;-1.458;2022-11-03T00:56:22;100248.42;;;14.93;20.50
70571;BME280;58135;50.948;-1.458;2022-11-03T00:58:47;100225.30;;;14.57;20.58
70571;BME280;58135;50.948;-1.458;2022-11-03T01:01:13;100201.82;;;12.60;20.72
70571;BME280;58135;50.948;-1.458;2022-11-03T01:03:39;100184.44;;;14.16;20.79
70571;BME280;58135;50.948;-1.458;2022-11-03T01:06:05;100200.55;;;14.85;20.92
70571;BME280;58135;50.948;-1.458;2022-11-03T01:08:31;100194.35;;;11.92;20.94
70571;BME280;58135;50.948;-1.458;2022-11-03T01:10:53;100185.02;;;13.69;21.12
70571;BME280;58135;50.948;-1.458;2022-11-03T01:13:18;100183.31;;;13.86;21.05
70571;BME280;58135;50.948;-1.458;2022-11-03T01:15:44;100173.98;;;12.98;20.95
70571;BME280;58135;50.948;-1.458;2022-11-03T01:18:10;100173.00;;;13.99;20.91
70571;BME280;58135;50.948;-1.458;2022-11-03T01:20:35;100171.79;;;14.99;20.78
70571;BME280;58135;50.948;-1.458;2022-11-03T01:23:00;100158.15;;;15.13;20.86
70571;BME280;58135;50.948;-1.458;2022-11-03T01:25:26;100152.86;;;15.29;20.81
70571;BME280;58135;50.948;-1.458;2022-11-03T01:27:51;100146.88;;;14.52;20.78
70571;BME280;58135;50.948;-1.458;2022-11-03T01:30:17;100143.55;;;14.69;20.63
70571;BME280;58135;50.948;-1.458;2022-11-03T01:32:42;100138.47;;;14.02;20.65
70571;BME280;58135;50.948;-1.458;2022-11-03T01:35:08;100134.89;;;15.89;20.46
70571;BME280;58135;50.948;-1.458;2022-11-03T01:37:33;100131.27;;;14.95;20.59
70571;BME280;58135;50.948;-1.458;2022-11-03T01:39:59;100125.64;;;15.15;20.66
70571;BME280;58135;50.948;-1.458;2022-11-03T01:42:24;100120.86;;;13.53;20.48
70571;BME280;58135;50.948;-1.458;2022-11-03T01:44:50;100122.57;;;14.63;20.37
70571;BME280;58135;50.948;-1.458;2022-11-03T01:47:21;100127.10;;;14.76;20.33
70571;BME280;58135;50.948;-1.458;2022-11-03T01:49:43;100125.84;;;15.54;20.75
70571;BME280;58135;50.948;-1.458;2022-11-03T01:52:10;100116.69;;;15.44;20.34
70571;BME280;58135;50.948;-1.458;2022-11-03T01:54:32;100103.63;;;13.49;20.78
70571;BME280;58135;50.948;-1.458;2022-11-03T01:56:58;100100.60;;;13.65;20.25
70571;BME280;58135;50.948;-1.458;2022-11-03T01:59:23;100074.81;;;14.52;20.56
70571;BME280;58135;50.948;-1.458;2022-11-03T02:01:48;100070.95;;;15.50;20.50
70571;BME280;58135;50.948;-1.458;2022-11-03T02:04:17;100068.66;;;13.71;20.41
70571;BME280;58135;50.948;-1.458;2022-11-03T02:06:39;100071.66;;;14.51;20.92
70571;BME280;58135;50.948;-1.458;2022-11-03T02:09:06;100047.07;;;14.62;21.82
70571;BME280;58135;50.948;-1.458;2022-11-03T02:11:31;100040.88;;;13.87;21.55
70571;BME280;58135;50.948;-1.458;2022-11-03T02:13:56;100030.61;;;13.39;21.94
70571;BME280;58135;50.948;-1.458;2022-11-03T02:16:22;100038.43;;;12.38;22.17
70571;BME280;58135;50.948;-1.458;2022-11-03T02:18:48;100038.21;;;11.37;21.83
70571;BME280;58135;50.948;-1.458;2022-11-03T02:21:20;100035.56;;;12.02;22.04
70571;BME280;58135;50.948;-1.458;2022-11-03T02:23:42;100025.02;;;10.23;22.17
70571;BME280;58135;50.948;-1.458;2022-11-03T02:26:05;100028.62;;;11.17;22.10
70571;BME280;58135;50.948;-1.458;2022-11-03T02:28:30;100022.35;;;14.12;22.11
70571;BME280;58135;50.948;-1.458;2022-11-03T02:31:01;100016.28;;;13.34;21.97
70571;BME280;58135;50.948;-1.458;2022-11-03T02:33:28;100011.52;;;14.47;21.86
70571;BME280;58135;50.948;-1.458;2022-11-03T02:35:49;100018.45;;;11.94;21.68
70571;BME280;58135;50.948;-1.458;2022-11-03T02:38:13;100017.32;;;12.89;21.64
70571;BME280;58135;50.948;-1.458;2022-11-03T02:40:42;100016.72;;;13.04;21.67
70571;BME280;58135;50.948;-1.458;2022-11-03T02:43:03;100009.45;;;12.18;21.64
70571;BME280;58135;50.948;-1.458;2022-11-03T02:45:28;100011.30;;;14.01;21.64
70571;BME280;58135;50.948;-1.458;2022-11-03T02:47:56;100002.18;;;13.06;21.60
70571;BME280;58135;50.948;-1.458;2022-11-03T02:50:18;99985.20;;;11.25;21.62
70571;BME280;58135;50.948;-1.458;2022-11-03T02:52:46;99983.79;;;11.91;21.62
70571;BME280;58135;50.948;-1.458;2022-11-03T02:55:13;99984.13;;;11.86;21.73
70571;BME280;58135;50.948;-1.458;2022-11-03T02:57:38;99982.91;;;15.35;21.95
70571;BME280;58135;50.948;-1.458;2022-11-03T03:00:03;99984.69;;;11.87;22.16
70571;BME280;58135;50.948;-1.458;2022-11-03T03:02:31;99988.62;;;14.64;22.03
70571;BME280;58135;50.948;-1.458;2022-11-03T03:04:54;99984.37;;;11.82;22.20
70571;BME280;58135;50.948;-1.458;2022-11-03T03:07:21;99971.68;;;12.50;22.21
70571;BME280;58135;50.948;-1.458;2022-11-03T03:09:48;99955.55;;;13.29;22.52
70571;BME280;58135;50.948;-1.458;2022-11-03T03:12:09;99938.66;;;12.25;22.23
70571;BME280;58135;50.948;-1.458;2022-11-03T03:14:36;99925.17;;;14.10;22.33
70571;BME280;58135;50.948;-1.458;2022-11-03T03:17:00;99924.82;;;14.41;22.09
70571;BME280;58135;50.948;-1.458;2022-11-03T03:19:30;99929.77;;;12.73;21.32
70571;BME280;58135;50.948;-1.458;2022-11-03T03:21:52;99929.08;;;12.58;21.58
70571;BME280;58135;50.948;-1.458;2022-11-03T03:24:20;99923.48;;;13.23;21.17
70571;BME280;58135;50.948;-1.458;2022-11-03T03:26:43;99924.90;;;14.03;21.32
70571;BME280;58135;50.948;-1.458;2022-11-03T03:29:11;99924.30;;;11.59;21.57
70571;BME280;58135;50.948;-1.458;2022-11-03T03:31:33;99917.34;;;12.84;21.44
70571;BME280;58135;50.948;-1.458;2022-11-03T03:33:58;99914.27;;;12.34;21.33
70571;BME280;58135;50.948;-1.458;2022-11-03T03:36:24;99913.50;;;14.38;21.31
70571;BME280;58135;50.948;-1.458;2022-11-03T03:38:55;99915.94;;;13.76;21.14
70571;BME280;58135;50.948;-1.458;2022-11-03T03:41:14;99905.28;;;13.06;21.67
70571;BME280;58135;50.948;-1.458;2022-11-03T03:43:40;99898.22;;;10.29;21.24
70571;BME280;58135;50.948;-1.458;2022-11-03T03:46:06;99895.30;;;13.58;20.85
70571;BME280;58135;50.948;-1.458;2022-11-03T03:48:31;99904.69;;;12.31;20.98
70571;BME280;58135;50.948;-1.458;2022-11-03T03:50:57;99909.17;;;12.45;21.10
70571;BME280;58135;50.948;-1.458;2022-11-03T03:53:26;99896.94;;;14.41;21.15
70571;BME280;58135;50.948;-1.458;2022-11-03T03:55:50;99884.24;;;13.70;21.71
70571;BME280;58135;50.948;-1.458;2022-11-03T03:58:14;99882.08;;;14.65;21.22
70571;BME280;58135;50.948;-1.458;2022-11-03T04:00:38;99877.18;;;12.10;21.06
70571;BME280;58135;50.948;-1.458;2022-11-03T04:03:04;99862.06;;;14.85;21.27
70571;BME280;58135;50.948;-1.458;2022-11-03T04:05:29;99858.85;;;14.06;21.14
70571;BME280;58135;50.948;-1.458;2022-11-03T04:07:55;99863.49;;;12.42;20.72
70571;BME280;58135;50.948;-1.458;2022-11-03T04:10:21;99866.26;;;14.36;20.73
70571;BME280;58135;50.948;-1.458;2022-11-03T04:12:47;99867.04;;;15.37;20.65
70571;BME280;58135;50.948;-1.458;2022-11-03T04:15:12;99870.21;;;14.58;20.65
70571;BME280;58135;50.948;-1.458;2022-11-03T04:17:39;99875.74;;;11.93;20.70
70571;BME280;58135;50.948;-1.458;2022-11-03T04:20:05;99877.96;;;14.56;20.64
70571;BME280;58135;50.948;-1.458;2022-11-03T04:22:31;99903.50;;;12.36;21.00
70571;BME280;58135;50.948;-1.458;2022-11-03T04:24:54;99901.18;;;12.69;21.17
70571;BME280;58135;50.948;-1.458;2022-11-03T04:27:26;99897.43;;;13.62;21.30
70571;BME280;58135;50.948;-1.458;2022-11-03T04:29:45;99881.94;;;12.57;21.19
70571;BME280;58135;50.948;-1.458;2022-11-03T04:32:14;99882.31;;;13.26;21.00
70571;BME280;58135;50.948;-1.458;2022-11-03T04:34:36;99883.75;;;11.15;21.76
70571;BME280;58135;50.948;-1.458;2022-11-03T04:37:01;99879.09;;;9.26;21.23
70571;BME280;58135;50.948;-1.458;2022-11-03T04:39:27;99880.03;;;11.18;21.21
70571;BME280;58135;50.948;-1.458;2022-11-03T04:41:52;99881.37;;;11.42;21.35
70571;BME280;58135;50.948;-1.458;2022-11-03T04:44:18;99883.67;;;11.73;21.65
70571;BME280;58135;50.948;-1.458;2022-11-03T04:46:44;99877.87;;;8.96;21.30
70571;BME280;58135;50.948;-1.458;2022-11-03T04:49:12;99877.64;;;11.45;21.16
70571;BME280;58135;50.948;-1.458;2022-11-03T04:51:34;99872.13;;;9.70;21.22
70571;BME280;58135;50.948;-1.458;2022-11-03T04:54:02;99869.06;;;10.65;20.95
70571;BME280;58135;50.948;-1.458;2022-11-03T04:56:25;99866.40;;;11.28;21.28
70571;BME280;58135;50.948;-1.458;2022-11-03T04:58:52;99863.09;;;11.39;21.32
70571;BME280;58135;50.948;-1.458;2022-11-03T05:01:20;99858.04;;;9.41;20.93
70571;BME280;58135;50.948;-1.458;2022-11-03T05:03:44;99853.73;;;12.85;20.81
70571;BME280;58135;50.948;-1.458;2022-11-03T05:06:10;99849.43;;;9.96;20.89
70571;BME280;58135;50.948;-1.458;2022-11-03T05:08:33;99849.64;;;11.72;21.00
70571;BME280;58135;50.948;-1.458;2022-11-03T05:10:59;99851.80;;;9.88;21.13
70571;BME280;58135;50.948;-1.458;2022-11-03T05:13:26;99846.42;;;9.54;21.46
70571;BME280;58135;50.948;-1.458;2022-11-03T05:15:51;99835.77;;;12.31;21.81
70571;BME280;58135;50.948;-1.458;2022-11-03T05:18:19;99819.75;;;9.92;22.05
70571;BME280;58135;50.948;-1.458;2022-11-03T05:20:45;99811.27;;;10.56;21.75
70571;BME280;58135;50.948;-1.458;2022-11-03T05:23:09;99810.32;;;11.33;21.84
70571;BME280;58135;50.948;-1.458;2022-11-03T05:25:37;99803.54;;;10.70;21.77
70571;BME280;58135;50.948;-1.458;2022-11-03T05:27:58;99800.95;;;10.11;21.27
70571;BME280;58135;50.948;-1.458;2022-11-03T05:30:23;99802.09;;;11.38;21.12
70571;BME280;58135;50.948;-1.458;2022-11-03T05:32:49;99794.32;;;11.58;21.49
70571;BME280;58135;50.948;-1.458;2022-11-03T05:35:19;99787.40;;;11.85;21.61
70571;BME280;58135;50.948;-1.458;2022-11-03T05:37:40;99782.56;;;12.84;21.07
70571;BME280;58135;50.948;-1.458;2022-11-03T05:40:13;99778.68;;;12.95;21.27
70571;BME280;58135;50.948;-1.458;2022-11-03T05:42:33;99771.06;;;11.30;20.86
70571;BME280;58135;50.948;-1.458;2022-11-03T05:44:57;99771.47;;;11.30;20.78
70571;BME280;58135;50.948;-1.458;2022-11-03T05:47:24;99783.94;;;11.42;20.66
70571;BME280;58135;50.948;-1.458;2022-11-03T05:49:49;99795.42;;;11.50;20.63
70571;BME280;58135;50.948;-1.458;2022-11-03T05:52:18;99790.25;;;13.63;21.35
70571;BME280;58135;50.948;-1.458;2022-11-03T05:54:39;99790.91;;;10.46;20.76
70571;BME280;58135;50.948;-1.458;2022-11-03T05:57:07;99794.24;;;12.38;20.63
70571;BME280;58135;50.948;-1.458;2022-11-03T05:59:30;99800.84;;;12.61;20.77
70571;BME280;58135;50.948;-1.458;2022-11-03T06:01:58;99799.67;;;13.68;20.92
70571;BME280;58135;50.948;-1.458;2022-11-03T06:04:25;99797.91;;;12.98;21.14
70571;BME280;58135;50.948;-1.458;2022-11-03T06:06:49;99798.36;;;13.05;21.00
70571;BME280;58135;50.948;-1.458;2022-11-03T06:09:15;99800.11;;;12.16;20.82
70571;BME280;58135;50.948;-1.458;2022-11-03T06:11:38;99803.44;;;13.18;21.01
70571;BME280;58135;50.948;-1.458;2022-11-03T06:14:12;99804.47;;;10.52;21.04
70571;BME280;58135;50.948;-1.458;2022-11-03T06:16:36;99799.15;;;12.24;20.64
70571;BME280;58135;50.948;-1.458;2022-11-03T06:18:55;99798.91;;;12.29;20.70
70571;BME280;58135;50.948;-1.458;2022-11-03T06:21:22;99793.63;;;12.95;20.23
70571;BME280;58135;50.948;-1.458;2022-11-03T06:23:46;99787.85;;;12.72;20.21
70571;BME280;58135;50.948;-1.458;2022-11-03T06:26:15;99785.46;;;12.72;20.44
70571;BME280;58135;50.948;-1.458;2022-11-03T06:28:38;99782.22;;;10.93;20.68
70571;BME280;58135;50.948;-1.458;2022-11-03T06:31:04;99780.47;;;11.75;20.86
70571;BME280;58135;50.948;-1.458;2022-11-03T06:33:32;99780.52;;;10.97;20.35
70571;BME280;58135;50.948;-1.458;2022-11-03T06:35:57;99782.98;;;11.88;20.17
70571;BME280;58135;50.948;-1.458;2022-11-03T06:38:20;99785.98;;;11.92;20.21
70571;BME280;58135;50.948;-1.458;2022-11-03T06:40:44;99789.62;;;10.94;19.89
70571;BME280;58135;50.948;-1.458;2022-11-03T06:43:17;99788.87;;;12.25;20.29
70571;BME280;58135;50.948;-1.458;2022-11-03T06:45:35;99789.02;;;12.28;20.30
70571;BME280;58135;50.948;-1.458;2022-11-03T06:48:02;99786.84;;;10.64;20.49
70571;BME280;58135;50.948;-1.458;2022-11-03T06:50:29;99785.23;;;11.71;20.87
70571;BME280;58135;50.948;-1.458;2022-11-03T06:52:53;99781.90;;;11.43;20.80
70571;BME280;58135;50.948;-1.458;2022-11-03T06:55:23;99778.29;;;9.71;21.03
70571;BME280;58135;50.948;-1.458;2022-11-03T06:57:45;99776.49;;;12.32;20.73
70571;BME280;58135;50.948;-1.458;2022-11-03T07:00:16;99779.35;;;10.57;20.34
70571;BME280;58135;50.948;-1.458;2022-11-03T07:02:49;99776.94;;;11.44;20.74
70571;BME280;58135;50.948;-1.458;2022-11-03T07:05:00;99772.81;;;13.24;20.80
70571;BME280;58135;50.948;-1.458;2022-11-03T07:07:25;99766.96;;;12.24;20.63
70571;BME280;58135;50.948;-1.458;2022-11-03T07:09:51;99760.77;;;13.29;20.51
70571;BME280;58135;50.948;-1.458;2022-11-03T07:12:17;99756.33;;;11.48;20.39
70571;BME280;58135;50.948;-1.458;2022-11-03T07:14:42;99749.97;;;10.87;20.59
70571;BME280;58135;50.948;-1.458;2022-11-03T07:17:15;99741.99;;;11.87;20.96
70571;BME280;58135;50.948;-1.458;2022-11-03T07:19:36;99742.37;;;12.00;20.56
70571;BME280;58135;50.948;-1.458;2022-11-03T07:22:00;99749.61;;;14.91;20.23
70571;BME280;58135;50.948;-1.458;2022-11-03T07:24:27;99756.01;;;14.23;20.10
70571;BME280;58135;50.948;-1.458;2022-11-03T07:26:55;99768.58;;;10.83;20.17
70571;BME280;58135;50.948;-1.458;2022-11-03T07:29:19;99769.01;;;13.68;20.01
70571;BME280;58135;50.948;-1.458;2022-11-03T07:31:41;99760.51;;;12.77;20.15
70571;BME280;58135;50.948;-1.458;2022-11-03T07:34:10;99758.56;;;12.76;20.04
70571;BME280;58135;50.948;-1.458;2022-11-03T07:36:32;99751.32;;;11.96;20.13
70571;BME280;58135;50.948;-1.458;2022-11-03T07:38:59;99743.42;;;11.95;20.19
70571;BME280;58135;50.948;-1.458;2022-11-03T07:41:25;99738.86;;;13.64;20.32
70571;BME280;58135;50.948;-1.458;2022-11-03T07:43:54;99737.02;;;12.68;20.09
70571;BME280;58135;50.948;-1.458;2022-11-03T07:46:17;99739.99;;;10.99;20.11
70571;BME280;58135;50.948;-1.458;2022-11-03T07:48:43;99739.81;;;12.95;20.04
70571;BME280;58135;50.948;-1.458;2022-11-03T07:51:14;99745.31;;;13.07;19.97
70571;BME280;58135;50.948;-1.458;2022-11-03T07:53:34;99741.06;;;14.02;19.92
70571;BME280;58135;50.948;-1.458;2022-11-03T07:55:57;99734.24;;;11.23;20.09
70571;BME280;58135;50.948;-1.458;2022-11-03T07:58:25;99726.56;;;11.99;20.17
70571;BME280;58135;50.948;-1.458;2022-11-03T08:00:48;99720.09;;;14.48;20.03
70571;BME280;58135;50.948;-1.458;2022-11-03T08:03:23;99722.36;;;11.73;20.20
70571;BME280;58135;50.948;-1.458;2022-11-03T08:05:38;99722.58;;;13.38;20.56
70571;BME280;58135;50.948;-1.458;2022-11-03T08:08:04;99728.38;;;12.50;20.60
70571;BME280;58135;50.948;-1.458;2022-11-03T08:10:30;99721.80;;;11.59;20.55
70571;BME280;58135;50.948;-1.458;2022-11-03T08:12:55;99713.53;;;14.25;20.66
70571;BME280;58135;50.948;-1.458;2022-11-03T08:15:20;99708.10;;;12.21;20.56
70571;BME280;58135;50.948;-1.458;2022-11-03T08:17:46;99708.86;;;13.93;20.60
70571;BME280;58135;50.948;-1.458;2022-11-03T08:20:11;99704.57;;;13.91;20.74
70571;BME280;58135;50.948;-1.458;2022-11-03T08:22:37;99703.31;;;12.01;20.32
70571;BME280;58135;50.948;-1.458;2022-11-03T08:25:03;99710.97;;;11.76;20.42
70571;BME280;58135;50.948;-1.458;2022-11-03T08:27:28;99707.86;;;11.00;20.55
70571;BME280;58135;50.948;-1.458;2022-11-03T08:29:53;99706.70;;;12.06;20.64
70571;BME280;58135;50.948;-1.458;2022-11-03T08:32:19;99710.81;;;13.98;20.63
70571;BME280;58135;50.948;-1.458;2022-11-03T08:34:45;99721.54;;;11.35;20.54
70571;BME280;58135;50.948;-1.458;2022-11-03T08:37:10;99729.72;;;14.26;20.23
70571;BME280;58135;50.948;-1.458;2022-11-03T08:39:36;99729.09;;;11.80;20.14
70571;BME280;58135;50.948;-1.458;2022-11-03T08:42:01;99726.32;;;11.90;20.10
70571;BME280;58135;50.948;-1.458;2022-11-03T08:44:27;99727.09;;;12.88;20.09
70571;BME280;58135;50.948;-1.458;2022-11-03T08:46:52;99732.69;;;12.98;20.02
70571;BME280;58135;50.948;-1.458;2022-11-03T08:49:18;99731.34;;;13.08;20.04
70571;BME280;58135;50.948;-1.458;2022-11-03T08:51:43;99731.21;;;11.31;20.23
70571;BME280;58135;50.948;-1.458;2022-11-03T08:54:09;99731.28;;;11.95;20.33
70571;BME280;58135;50.948;-1.458;2022-11-03T08:56:34;99728.31;;;12.07;20.16
70571;BME280;58135;50.948;-1.458;2022-11-03T08:59:00;99729.44;;;12.94;20.55
70571;BME280;58135;50.948;-1.458;2022-11-03T09:01:25;99732.03;;;12.10;20.28
70571;BME280;58135;50.948;-1.458;2022-11-03T09:03:51;99724.89;;;12.22;20.41
70571;BME280;58135;50.948;-1.458;2022-11-03T09:06:16;99726.61;;;13.08;20.06
70571;BME280;58135;50.948;-1.458;2022-11-03T09:08:42;99742.61;;;12.25;20.13
70571;BME280;58135;50.948;-1.458;2022-11-03T09:11:08;99747.73;;;12.54;19.58
70571;BME280;58135;50.948;-1.458;2022-11-03T09:13:33;99741.83;;;12.68;19.98
70571;BME280;58135;50.948;-1.458;2022-11-03T09:15:59;99745.08;;;13.13;20.07
70571;BME280;58135;50.948;-1.458;2022-11-03T09:18:24;99749.57;;;11.26;20.10
70571;BME280;58135;50.948;-1.458;2022-11-03T09:20:50;99745.66;;;10.95;20.02
70571;BME280;58135;50.948;-1.458;2022-11-03T09:23:15;99737.14;;;12.43;20.39
70571;BME280;58135;50.948;-1.458;2022-11-03T09:25:41;99726.88;;;13.70;20.07
70571;BME280;58135;50.948;-1.458;2022-11-03T09:28:07;99730.43;;;12.60;20.31
70571;BME280;58135;50.948;-1.458;2022-11-03T09:30:32;99734.91;;;12.08;20.40
70571;BME280;58135;50.948;-1.458;2022-11-03T09:32:58;99731.09;;;12.62;20.25
70571;BME280;58135;50.948;-1.458;2022-11-03T09:35:23;99731.01;;;9.54;20.26
70571;BME280;58135;50.948;-1.458;2022-11-03T09:37:49;99733.48;;;11.79;19.76
70571;BME280;58135;50.948;-1.458;2022-11-03T09:40:15;99736.79;;;13.46;20.05
70571;BME280;58135;50.948;-1.458;2022-11-03T09:42:41;99743.08;;;14.10;20.08
70571;BME280;58135;50.948;-1.458;2022-11-03T09:45:07;99744.26;;;13.49;20.14
70571;BME280;58135;50.948;-1.458;2022-11-03T09:47:32;99744.90;;;12.90;19.96
70571;BME280;58135;50.948;-1.458;2022-11-03T09:49:56;99742.76;;;12.28;19.75
70571;BME280;58135;50.948;-1.458;2022-11-03T09:52:22;99735.20;;;12.36;19.85
70571;BME280;58135;50.948;-1.458;2022-11-03T09:54:48;99730.89;;;11.57;19.78
70571;BME280;58135;50.948;-1.458;2022-11-03T09:57:15;99723.74;;;14.16;19.85
70571;BME280;58135;50.948;-1.458;2022-11-03T09:59:40;99726.52;;;13.21;20.02
70571;BME280;58135;50.948;-1.458;2022-11-03T10:02:12;99729.61;;;11.97;19.74
70571;BME280;58135;50.948;-1.458;2022-11-03T10:04:30;99724.03;;;10.96;19.45
70571;BME280;58135;50.948;-1.458;2022-11-03T10:06:56;99715.87;;;14.14;19.54
70571;BME280;58135;50.948;-1.458;2022-11-03T10:09:22;99711.08;;;13.17;19.71
70571;BME280;58135;50.948;-1.458;2022-11-03T10:11:46;99710.72;;;13.21;19.50
70571;BME280;58135;50.948;-1.458;2022-11-03T10:14:13;99708.46;;;11.60;19.80
70571;BME280;58135;50.948;-1.458;2022-11-03T10:16:38;99708.42;;;11.03;19.60
70571;BME280;58135;50.948;-1.458;2022-11-03T10:19:03;99704.13;;;14.92;19.46
70571;BME280;58135;50.948;-1.458;2022-11-03T10:21:30;99698.91;;;11.73;19.69
70571;BME280;58135;50.948;-1.458;2022-11-03T10:23:54;99693.12;;;13.74;19.72
70571;BME280;58135;50.948;-1.458;2022-11-03T10:26:20;99687.84;;;13.10;19.71
70571;BME280;58135;50.948;-1.458;2022-11-03T10:28:57;99684.62;;;14.21;19.41
70571;BME280;58135;50.948;-1.458;2022-11-03T10:31:17;99682.06;;;12.56;19.66
70571;BME280;58135;50.948;-1.458;2022-11-03T10:33:37;99681.46;;;14.40;18.98
70571;BME280;58135;50.948;-1.458;2022-11-03T10:36:03;99684.13;;;12.67;19.03
70571;BME280;58135;50.948;-1.458;2022-11-03T10:38:29;99683.59;;;14.63;19.01
70571;BME280;58135;50.948;-1.458;2022-11-03T10:40:53;99682.22;;;14.00;18.86
70571;BME280;58135;50.948;-1.458;2022-11-03T10:43:18;99678.69;;;14.05;18.82
70571;BME280;58135;50.948;-1.458;2022-11-03T10:45:44;99673.23;;;13.20;19.15
70571;BME280;58135;50.948;-1.458;2022-11-03T10:48:10;99668.47;;;13.43;19.09
70571;BME280;58135;50.948;-1.458;2022-11-03T10:50:37;99669.11;;;13.63;19.08
70571;BME280;58135;50.948;-1.458;2022-11-03T10:53:01;99670.38;;;13.76;19.26
70571;BME280;58135;50.948;-1.458;2022-11-03T10:55:26;99670.29;;;13.87;19.16
70571;BME280;58135;50.948;-1.458;2022-11-03T10:57:52;99675.47;;;13.07;19.82
70571;BME280;58135;50.948;-1.458;2022-11-03T11:00:18;99675.46;;;13.14;19.15
70571;BME280;58135;50.948;-1.458;2022-11-03T11:02:44;99676.81;;;14.15;19.58
70571;BME280;58135;50.948;-1.458;2022-11-03T11:05:13;99675.14;;;13.45;19.08
70571;BME280;58135;50.948;-1.458;2022-11-03T11:07:37;99671.14;;;13.54;19.03
70571;BME280;58135;50.948;-1.458;2022-11-03T11:10:05;99673.92;;;13.55;19.47
70571;BME280;58135;50.948;-1.458;2022-11-03T11:12:30;99675.12;;;14.58;19.07
70571;BME280;58135;50.948;-1.458;2022-11-03T11:14:53;99676.02;;;15.48;18.79
70571;BME280;58135;50.948;-1.458;2022-11-03T11:22:12;99676.85;;;12.80;19.08
70571;BME280;58135;50.948;-1.458;2022-11-03T11:26:58;99681.70;;;12.70;18.90
70571;BME280;58135;50.948;-1.458;2022-11-03T11:29:32;99681.88;;;14.28;19.26
70571;BME280;58135;50.948;-1.458;2022-11-03T11:31:49;99688.75;;;14.12;18.76
70571;BME280;58135;50.948;-1.458;2022-11-03T11:36:42;99703.71;;;13.88;18.79
70571;BME280;58135;50.948;-1.458;2022-11-03T11:39:10;99707.80;;;13.89;19.02
70571;BME280;58135;50.948;-1.458;2022-11-03T11:46:35;99712.88;;;14.78;19.11
70571;BME280;58135;50.948;-1.458;2022-11-03T11:48:49;99718.51;;;14.58;19.36
70571;BME280;58135;50.948;-1.458;2022-11-03T11:51:14;99722.71;;;14.50;19.53
70571;BME280;58135;50.948;-1.458;2022-11-03T11:53:40;99718.93;;;13.64;19.34
70571;BME280;58135;50.948;-1.458;2022-11-03T11:56:08;99714.32;;;11.99;19.54
70571;BME280;58135;50.948;-1.458;2022-11-03T11:58:37;99717.20;;;13.87;19.53
70571;BME280;58135;50.948;-1.458;2022-11-03T12:00:59;99712.55;;;14.26;19.36
70571;BME280;58135;50.948;-1.458;2022-11-03T12:03:26;99707.37;;;15.41;19.24
70571;BME280;58135;50.948;-1.458;2022-11-03T12:05:48;99683.49;;;13.68;19.57
70571;BME280;58135;50.948;-1.458;2022-11-03T12:08:16;99643.74;;;11.88;19.37
70571;BME280;58135;50.948;-1.458;2022-11-03T12:15:48;99613.11;;;15.18;19.11
70571;BME280;58135;50.948;-1.458;2022-11-03T12:17:54;99641.53;;;13.49;19.06
70571;BME280;58135;50.948;-1.458;2022-11-03T12:20:33;99683.38;;;15.32;19.46
70571;BME280;58135;50.948;-1.458;2022-11-03T12:22:46;99693.51;;;16.87;19.36
70571;BME280;58135;50.948;-1.458;2022-11-03T12:25:31;99680.99;;;16.23;19.15
70571;BME280;58135;50.948;-1.458;2022-11-03T12:27:41;99670.58;;;14.47;19.21
70571;BME280;58135;50.948;-1.458;2022-11-03T12:30:07;99669.42;;;12.69;19.14
70571;BME280;58135;50.948;-1.458;2022-11-03T12:32:28;99667.23;;;14.53;19.33
70571;BME280;58135;50.948;-1.458;2022-11-03T12:34:53;99664.52;;;15.52;19.12
70571;BME280;58135;50.948;-1.458;2022-11-03T12:37:19;99665.17;;;13.50;18.60
70571;BME280;58135;50.948;-1.458;2022-11-03T12:39:44;99666.27;;;15.18;18.76
70571;BME280;58135;50.948;-1.458;2022-11-03T12:42:10;99671.88;;;12.60;19.11
70571;BME280;58135;50.948;-1.458;2022-11-03T12:44:35;99670.73;;;13.70;19.22
70571;BME280;58135;50.948;-1.458;2022-11-03T12:47:01;99665.27;;;14.11;19.34
70571;BME280;58135;50.948;-1.458;2022-11-03T12:49:26;99667.99;;;13.57;19.37
70571;BME280;58135;50.948;-1.458;2022-11-03T12:51:52;99666.95;;;14.59;19.13
70571;BME280;58135;50.948;-1.458;2022-11-03T12:54:17;99667.77;;;15.40;19.07
70571;BME280;58135;50.948;-1.458;2022-11-03T12:56:43;99665.37;;;15.40;19.23